createdAt,value
2019-05-29T00:02:22.960Z,100906.62
2019-05-29T00:04:54.175Z,100896.20
2019-05-29T00:07:25.317Z,100898.68
2019-05-29T00:09:58.688Z,100889.69
2019-05-29T00:12:32.131Z,100896.12
2019-05-29T00:15:03.380Z,100898.41
2019-05-29T00:17:34.473Z,100898.52
2019-05-29T00:20:06.426Z,100901.67
2019-05-29T00:22:37.725Z,100906.55
2019-05-29T00:25:10.580Z,100903.28
2019-05-29T00:27:42.098Z,100906.84
2019-05-29T00:30:13.534Z,100903.06
2019-05-29T00:32:46.413Z,100897.64
2019-05-29T00:35:17.641Z,100908.84
2019-05-29T00:37:48.817Z,100905.16
2019-05-29T00:40:19.840Z,100901.98
2019-05-29T00:42:51.005Z,100909.32
2019-05-29T00:45:22.130Z,100906.52
2019-05-29T00:47:53.311Z,100904.58
2019-05-29T00:50:24.350Z,100902.78
2019-05-29T00:52:55.487Z,100897.72
2019-05-29T00:55:26.890Z,100895.69
2019-05-29T00:57:58.029Z,100886.20
2019-05-29T01:00:29.546Z,100886.59
2019-05-29T01:03:00.722Z,100887.44
2019-05-29T01:05:31.752Z,100878.48
2019-05-29T01:08:02.931Z,100884.77
2019-05-29T01:10:34.108Z,100875.78
2019-05-29T01:13:05.233Z,100877.98
2019-05-29T01:15:36.421Z,100884.05
2019-05-29T01:18:07.579Z,100882.94
2019-05-29T01:20:38.595Z,100885.65
2019-05-29T01:23:09.692Z,100891.92
2019-05-29T01:25:40.812Z,100893.39
2019-05-29T01:28:12.688Z,100889.62
2019-05-29T01:30:44.007Z,100892.59
2019-05-29T01:33:17.517Z,100886.32
2019-05-29T01:35:48.003Z,100891.23
2019-05-29T01:41:23.551Z,100889.38
2019-05-29T01:43:55.014Z,100886.03
2019-05-29T01:46:26.137Z,100894.24
2019-05-29T01:48:57.226Z,100894.33
2019-05-29T01:51:28.403Z,100897.72
2019-05-29T01:53:59.498Z,100890.91
2019-05-29T01:56:30.628Z,100899.13
2019-05-29T01:59:01.956Z,100894.14
2019-05-29T02:01:33.068Z,100903.80
2019-05-29T02:04:04.281Z,100907.69
2019-05-29T02:06:35.855Z,100917.57
2019-05-29T02:09:07.859Z,100915.18
2019-05-29T02:11:38.934Z,100917.14
2019-05-29T02:14:09.948Z,100922.41
2019-05-29T02:16:40.903Z,100913.99
2019-05-29T02:19:11.828Z,100916.22
2019-05-29T02:21:42.785Z,100912.24
2019-05-29T02:24:13.737Z,100918.67
2019-05-29T02:26:44.913Z,100916.94
2019-05-29T02:29:16.434Z,100915.15
2019-05-29T02:31:47.759Z,100918.31
2019-05-29T02:34:19.995Z,100911.45
2019-05-29T02:36:51.162Z,100901.61
2019-05-29T02:39:23.022Z,100903.61
2019-05-29T02:41:54.835Z,100894.83
2019-05-29T02:44:27.475Z,100903.05
2019-05-29T02:46:58.678Z,100893.86
2019-05-29T02:49:30.373Z,100893.70
2019-05-29T02:52:01.701Z,100899.31
2019-05-29T02:54:32.798Z,100892.30
2019-05-29T02:57:03.913Z,100896.19
2019-05-29T02:59:34.919Z,100890.64
2019-05-29T03:02:05.907Z,100894.81
2019-05-29T03:04:37.014Z,100895.49
2019-05-29T03:07:08.029Z,100897.67
2019-05-29T03:09:38.954Z,100892.37
2019-05-29T03:12:09.991Z,100894.78
2019-05-29T03:14:41.044Z,100892.88
2019-05-29T03:17:12.096Z,100895.17
2019-05-29T03:19:42.997Z,100898.54
2019-05-29T03:22:14.005Z,100884.79
2019-05-29T03:24:45.088Z,100889.27
2019-05-29T03:27:15.995Z,100882.38
2019-05-29T03:29:47.233Z,100888.60
2019-05-29T03:32:18.363Z,100896.73
2019-05-29T03:34:49.413Z,100893.89
2019-05-29T03:37:20.403Z,100887.54
2019-05-29T03:39:51.411Z,100881.41
2019-05-29T03:42:22.485Z,100876.98
2019-05-29T03:44:53.521Z,100886.02
2019-05-29T03:47:24.454Z,100879.89
2019-05-29T03:49:55.404Z,100880.63
2019-05-29T03:52:28.282Z,100878.92
2019-05-29T03:54:59.103Z,100880.91
2019-05-29T03:57:31.726Z,100878.36
2019-05-29T04:00:03.411Z,100875.16
2019-05-29T04:02:35.536Z,100874.69
2019-05-29T04:05:07.482Z,100875.02
2019-05-29T04:07:38.655Z,100881.45
2019-05-29T04:10:10.082Z,100889.02
2019-05-29T04:12:40.998Z,100882.31
2019-05-29T04:15:12.274Z,100883.14
2019-05-29T04:17:44.661Z,100876.12
2019-05-29T04:20:15.683Z,100887.63
2019-05-29T04:22:46.703Z,100889.80
2019-05-29T04:25:17.683Z,100885.59
2019-05-29T04:27:51.896Z,100889.54
2019-05-29T04:30:22.939Z,100890.10
2019-05-29T04:32:53.958Z,100896.73
2019-05-29T04:35:24.929Z,100893.23
2019-05-29T04:37:55.968Z,100890.98
2019-05-29T04:40:28.556Z,100897.13
2019-05-29T04:42:59.872Z,100908.12
2019-05-29T04:45:33.031Z,100905.41
2019-05-29T04:48:03.871Z,100906.00
2019-05-29T04:50:36.472Z,100905.75
2019-05-29T04:53:08.964Z,100915.00
2019-05-29T04:55:39.951Z,100914.17
2019-05-29T04:58:11.753Z,100911.19
2019-05-29T05:00:58.242Z,100906.67
2019-05-29T05:03:15.626Z,100902.19
2019-05-29T05:05:46.702Z,100903.62
2019-05-29T05:08:17.720Z,100899.92
2019-05-29T05:10:48.712Z,100901.58
2019-05-29T05:13:20.305Z,100899.43
2019-05-29T05:15:52.852Z,100903.00
2019-05-29T05:18:24.000Z,100899.48
2019-05-29T05:20:55.184Z,100903.66
2019-05-29T05:23:26.313Z,100905.23
2019-05-29T05:25:59.015Z,100905.88
2019-05-29T05:28:30.355Z,100915.41
2019-05-29T05:31:01.505Z,100908.78
2019-05-29T05:33:32.499Z,100905.42
2019-05-29T05:36:04.348Z,100908.48
2019-05-29T05:38:35.398Z,100901.57
2019-05-29T05:41:06.628Z,100917.34
2019-05-29T05:43:38.912Z,100907.45
2019-05-29T05:46:10.255Z,100914.76
2019-05-29T05:48:41.654Z,100912.48
2019-05-29T05:51:12.764Z,100911.52
2019-05-29T05:53:43.772Z,100906.11
2019-05-29T05:56:15.018Z,100909.15
2019-05-29T05:58:46.164Z,100915.86
2019-05-29T06:01:17.288Z,100921.72
2019-05-29T06:03:48.427Z,100926.24
2019-05-29T06:06:19.348Z,100923.08
2019-05-29T06:08:50.342Z,100921.55
2019-05-29T06:11:21.454Z,100917.88
2019-05-29T06:13:54.227Z,100924.69
2019-05-29T06:16:25.420Z,100927.88
2019-05-29T06:18:57.501Z,100922.95
2019-05-29T06:21:28.513Z,100931.78
2019-05-29T06:23:59.553Z,100941.91
2019-05-29T06:26:30.539Z,100935.85
2019-05-29T06:29:01.489Z,100942.88
2019-05-29T06:31:35.187Z,100940.66
2019-05-29T06:34:06.525Z,100945.61
2019-05-29T06:36:37.960Z,100951.59
2019-05-29T06:39:12.502Z,100957.64
2019-05-29T06:41:44.329Z,100952.05
2019-05-29T06:44:15.612Z,100953.39
2019-05-29T06:46:46.758Z,100954.22
2019-05-29T06:49:17.999Z,100949.50
2019-05-29T06:51:51.835Z,100958.53
2019-05-29T06:54:22.818Z,100947.02
2019-05-29T06:56:53.810Z,100946.48
2019-05-29T06:59:24.842Z,100949.27
2019-05-29T07:01:57.530Z,100950.30
2019-05-29T07:04:28.615Z,100945.54
2019-05-29T07:06:59.519Z,100946.72
2019-05-29T07:09:30.670Z,100945.33
2019-05-29T07:12:01.889Z,100934.98
2019-05-29T07:14:32.970Z,100932.23
2019-05-29T07:17:03.923Z,100939.78
2019-05-29T07:19:49.783Z,100943.72
2019-05-29T07:22:07.875Z,100941.33
2019-05-29T07:24:38.823Z,100938.86
2019-05-29T07:27:13.313Z,100936.75
2019-05-29T07:29:43.481Z,100942.30
2019-05-29T07:32:14.666Z,100942.91
2019-05-29T07:34:57.926Z,100932.47
2019-05-29T07:37:18.384Z,100925.08
2019-05-29T07:39:49.391Z,100919.91
2019-05-29T07:42:20.384Z,100910.41
2019-05-29T07:44:51.312Z,100913.69
2019-05-29T07:47:22.418Z,100913.41
2019-05-29T07:49:53.481Z,100908.70
2019-05-29T07:52:24.558Z,100901.06
2019-05-29T07:54:55.666Z,100906.70
2019-05-29T07:57:27.557Z,100911.45
2019-05-29T07:59:58.794Z,100908.92
2019-05-29T08:02:29.726Z,100903.33
2019-05-29T08:05:00.845Z,100911.39
2019-05-29T08:07:31.872Z,100918.59
2019-05-29T08:10:03.592Z,100912.45
2019-05-29T08:12:34.647Z,100904.48
2019-05-29T08:15:06.374Z,100904.92
2019-05-29T08:17:38.101Z,100906.75
2019-05-29T08:20:10.185Z,100909.70
2019-05-29T08:22:42.427Z,100909.16
2019-05-29T08:25:13.763Z,100911.80
2019-05-29T08:27:44.847Z,100911.93
2019-05-29T08:30:15.912Z,100910.14
2019-05-29T08:32:47.056Z,100904.39
2019-05-29T08:35:18.233Z,100907.45
2019-05-29T08:37:49.250Z,100912.45
2019-05-29T08:40:20.548Z,100907.03
2019-05-29T08:42:51.540Z,100904.75
2019-05-29T08:45:22.646Z,100900.12
2019-05-29T08:47:53.705Z,100895.41
2019-05-29T08:50:26.088Z,100896.73
2019-05-29T08:52:57.114Z,100902.50
2019-05-29T08:55:28.232Z,100897.95
2019-05-29T08:57:59.203Z,100903.09
2019-05-29T09:00:30.173Z,100891.22
2019-05-29T09:03:01.202Z,100884.62
2019-05-29T09:05:32.261Z,100889.53
2019-05-29T09:08:03.236Z,100891.36
2019-05-29T09:10:34.235Z,100885.77
2019-05-29T09:13:05.479Z,100877.19
2019-05-29T09:15:36.706Z,100881.67
2019-05-29T09:18:07.784Z,100869.59
2019-05-29T09:21:00.705Z,100870.38
2019-05-29T09:23:12.635Z,100875.06
2019-05-29T09:25:43.783Z,100879.81
2019-05-29T09:28:16.118Z,100866.69
2019-05-29T09:30:47.237Z,100861.52
2019-05-29T09:33:21.085Z,100863.97
2019-05-29T09:35:51.064Z,100862.09
2019-05-29T09:38:23.053Z,100849.88
2019-05-29T09:40:54.435Z,100854.25
2019-05-29T09:43:29.801Z,100861.59
2019-05-29T09:46:01.451Z,100851.42
2019-05-29T09:48:30.829Z,100845.88
2019-05-29T09:51:20.235Z,100847.86
2019-05-29T09:53:34.566Z,100845.09
2019-05-29T09:56:06.215Z,100847.56
2019-05-29T09:58:37.284Z,100842.78
2019-05-29T10:01:22.278Z,100840.49
2019-05-29T10:03:41.075Z,100844.56
2019-05-29T10:06:12.170Z,100847.91
2019-05-29T10:08:43.366Z,100843.16
2019-05-29T10:11:14.449Z,100844.93
2019-05-29T10:13:49.789Z,100842.22
2019-05-29T10:16:20.907Z,100842.86
2019-05-29T10:18:52.051Z,100827.72
2019-05-29T10:21:38.512Z,100838.85
2019-05-29T10:23:56.599Z,100836.70
2019-05-29T10:26:28.528Z,100827.31
2019-05-29T10:31:32.592Z,100820.09
2019-05-29T10:32:52.905Z,100817.53
2019-05-29T10:34:03.675Z,100817.39
2019-05-29T10:36:34.719Z,100818.62
2019-05-29T10:39:08.066Z,100804.02
2019-05-29T10:41:39.109Z,100801.14
2019-05-29T10:44:12.890Z,100799.23
2019-05-29T10:46:46.157Z,100785.84
2019-05-29T10:49:15.731Z,100787.91
2019-05-29T10:52:00.441Z,100783.00
2019-05-29T10:54:19.501Z,100781.91
2019-05-29T10:56:50.958Z,100774.70
2019-05-29T10:59:22.064Z,100780.71
2019-05-29T11:01:53.770Z,100775.33
2019-05-29T11:04:25.145Z,100765.00
2019-05-29T11:06:56.956Z,100757.70
2019-05-29T11:09:43.308Z,100756.70
2019-05-29T11:12:02.325Z,100751.48
2019-05-29T11:14:33.414Z,100738.09
2019-05-29T11:17:04.605Z,100736.42
2019-05-29T11:19:35.666Z,100727.84
2019-05-29T11:22:25.151Z,100725.49
2019-05-29T11:24:41.345Z,100727.64
2019-05-29T11:27:12.438Z,100722.55
2019-05-29T11:29:43.694Z,100711.81
2019-05-29T11:32:14.759Z,100708.32
2019-05-29T11:34:45.680Z,100709.80
2019-05-29T11:37:16.659Z,100720.71
2019-05-29T11:39:47.677Z,100711.14
2019-05-29T11:42:27.309Z,100714.41
2019-05-29T11:44:53.287Z,100713.41
2019-05-29T11:47:24.228Z,100703.78
2019-05-29T11:49:55.233Z,100702.69
2019-05-29T11:52:41.779Z,100706.30
2019-05-29T11:55:00.086Z,100714.41
2019-05-29T11:57:31.541Z,100697.52
2019-05-29T12:00:15.292Z,100694.95
2019-05-29T12:02:36.079Z,100689.81
2019-05-29T12:05:08.812Z,100687.00
2019-05-29T12:07:39.931Z,100682.30
2019-05-29T12:10:11.803Z,100682.16
2019-05-29T12:12:43.019Z,100670.05
2019-05-29T12:15:18.588Z,100674.69
2019-05-29T12:17:48.852Z,100665.45
2019-05-29T12:20:28.789Z,100673.14
2019-05-29T12:23:13.244Z,100666.79
2019-05-29T12:25:25.696Z,100676.84
2019-05-29T12:27:57.321Z,100678.95
2019-05-29T12:30:28.620Z,100677.00
2019-05-29T12:32:59.770Z,100659.47
2019-05-29T12:35:30.743Z,100665.00
2019-05-29T12:38:01.740Z,100671.22
2019-05-29T12:40:32.957Z,100671.27
2019-05-29T12:43:04.147Z,100662.98
2019-05-29T12:45:35.283Z,100656.30
2019-05-29T12:48:13.483Z,100655.22
2019-05-29T12:50:39.190Z,100649.63
2019-05-29T12:53:10.139Z,100642.11
2019-05-29T12:55:41.299Z,100625.06
2019-05-29T12:58:12.446Z,100615.55
2019-05-29T13:00:43.675Z,100620.65
2019-05-29T13:03:15.036Z,100618.72
2019-05-29T13:05:45.960Z,100623.68
2019-05-29T13:08:17.098Z,100630.11
2019-05-29T13:10:48.197Z,100630.47
2019-05-29T13:13:19.375Z,100617.67
2019-05-29T13:15:50.348Z,100616.75
2019-05-29T13:18:21.552Z,100607.91
2019-05-29T13:20:52.535Z,100619.91
2019-05-29T13:23:23.625Z,100642.45
2019-05-29T13:25:55.347Z,100644.77
2019-05-29T13:28:26.698Z,100656.44
2019-05-29T13:30:57.775Z,100657.82
2019-05-29T13:33:28.977Z,100664.91
2019-05-29T13:36:00.261Z,100659.59
2019-05-29T13:38:33.660Z,100663.38
2019-05-29T13:41:04.561Z,100661.59
2019-05-29T13:43:35.881Z,100666.18
2019-05-29T13:46:07.117Z,100668.31
2019-05-29T13:48:38.277Z,100673.68
2019-05-29T13:51:09.433Z,100684.19
2019-05-29T13:53:40.450Z,100690.61
2019-05-29T13:56:11.508Z,100704.45
2019-05-29T13:58:42.564Z,100702.19
2019-05-29T14:01:13.788Z,100700.67
2019-05-29T14:03:44.912Z,100694.56
2019-05-29T14:06:16.183Z,100692.17
2019-05-29T14:08:47.246Z,100694.95
2019-05-29T14:11:18.221Z,100700.14
2019-05-29T14:13:49.422Z,100696.23
2019-05-29T14:16:20.402Z,100702.45
2019-05-29T14:18:51.638Z,100694.28
2019-05-29T14:21:22.840Z,100705.76
2019-05-29T14:23:53.943Z,100701.55
2019-05-29T14:26:24.929Z,100698.42
2019-05-29T14:28:55.939Z,100706.67
2019-05-29T14:31:27.552Z,100695.47
2019-05-29T14:33:58.666Z,100696.52
2019-05-29T14:36:29.759Z,100703.48
2019-05-29T14:39:01.590Z,100694.09
2019-05-29T14:41:33.160Z,100696.08
2019-05-29T14:44:04.194Z,100687.39
2019-05-29T14:46:35.115Z,100692.70
2019-05-29T14:49:06.466Z,100697.48
2019-05-29T14:51:37.585Z,100697.66
2019-05-29T14:54:08.951Z,100694.00
2019-05-29T14:56:40.086Z,100697.41
2019-05-29T14:59:11.291Z,100704.13
2019-05-29T15:01:42.345Z,100701.19
2019-05-29T15:04:14.730Z,100703.83
2019-05-29T15:06:46.269Z,100704.83
2019-05-29T15:09:17.494Z,100713.91
2019-05-29T15:11:48.607Z,100712.14
2019-05-29T15:14:19.662Z,100716.23
2019-05-29T15:16:50.881Z,100716.02
2019-05-29T15:19:21.977Z,100720.33
2019-05-29T15:21:53.285Z,100722.41
2019-05-29T15:24:24.429Z,100721.44
2019-05-29T15:26:55.397Z,100724.12
2019-05-29T15:29:26.641Z,100725.27
2019-05-29T15:31:57.689Z,100724.28
2019-05-29T15:34:28.839Z,100723.02
2019-05-29T15:36:59.989Z,100726.19
2019-05-29T15:39:31.087Z,100719.09
2019-05-29T15:42:02.259Z,100721.65
2019-05-29T15:44:33.304Z,100718.95
2019-05-29T15:47:04.617Z,100725.08
2019-05-29T15:49:35.673Z,100726.45
2019-05-29T15:52:07.117Z,100730.59
2019-05-29T15:54:38.318Z,100724.06
2019-05-29T15:57:09.321Z,100723.77
2019-05-29T15:59:40.400Z,100721.84
2019-05-29T16:02:11.547Z,100720.64
2019-05-29T16:04:42.757Z,100724.31
2019-05-29T16:07:14.140Z,100720.89
2019-05-29T16:09:45.374Z,100728.51
2019-05-29T16:12:16.844Z,100724.42
2019-05-29T16:14:48.170Z,100727.38
2019-05-29T16:17:19.866Z,100726.16
2019-05-29T16:19:51.026Z,100724.31
2019-05-29T16:22:22.668Z,100728.83
2019-05-29T16:24:54.742Z,100725.17
2019-05-29T16:27:30.657Z,100725.39
2019-05-29T16:29:59.086Z,100722.98
2019-05-29T16:32:30.416Z,100724.22
2019-05-29T16:35:01.437Z,100724.02
2019-05-29T16:37:32.696Z,100728.19
2019-05-29T16:40:05.548Z,100730.17
2019-05-29T16:42:36.876Z,100729.13
2019-05-29T16:45:12.217Z,100726.80
2019-05-29T16:47:43.595Z,100725.52
2019-05-29T16:50:17.278Z,100731.77
2019-05-29T16:52:48.196Z,100733.03
2019-05-29T16:55:19.490Z,100729.83
2019-05-29T16:57:50.694Z,100733.21
2019-05-29T17:00:23.466Z,100728.83
2019-05-29T17:02:54.911Z,100727.77
2019-05-29T17:05:27.017Z,100728.63
2019-05-29T17:07:58.447Z,100736.32
2019-05-29T17:10:37.500Z,100735.75
2019-05-29T17:13:09.021Z,100738.16
2019-05-29T17:15:41.463Z,100745.21
2019-05-29T17:18:12.778Z,100734.59
2019-05-29T17:20:46.336Z,100734.83
2019-05-29T17:23:18.455Z,100738.67
2019-05-29T17:25:50.288Z,100739.80
2019-05-29T17:28:25.019Z,100739.19
2019-05-29T17:30:54.275Z,100736.01
2019-05-29T17:33:25.518Z,100737.26
2019-05-29T17:35:56.482Z,100745.93
2019-05-29T17:38:27.630Z,100745.09
2019-05-29T17:41:01.451Z,100744.66
2019-05-29T17:43:32.676Z,100749.44
2019-05-29T17:46:03.921Z,100752.83
2019-05-29T17:48:35.233Z,100759.67
2019-05-29T17:51:06.526Z,100758.59
2019-05-29T17:53:37.951Z,100759.77
2019-05-29T17:56:09.136Z,100764.17
2019-05-29T17:58:40.329Z,100773.88
2019-05-29T18:01:11.339Z,100786.86
2019-05-29T18:03:42.376Z,100786.38
2019-05-29T18:06:13.418Z,100785.47
2019-05-29T18:08:44.524Z,100787.91
2019-05-29T18:11:16.830Z,100784.36
2019-05-29T18:13:48.355Z,100792.84
2019-05-29T18:16:19.785Z,100793.56
2019-05-29T18:18:50.961Z,100793.05
2019-05-29T18:21:21.898Z,100800.08
2019-05-29T18:23:53.663Z,100798.06
2019-05-29T18:26:26.149Z,100788.70
2019-05-29T18:29:01.597Z,100794.36
2019-05-29T18:31:32.963Z,100794.60
2019-05-29T18:34:04.190Z,100795.25
2019-05-29T18:36:35.342Z,100795.12
2019-05-29T18:39:08.454Z,100797.19
2019-05-29T18:41:43.737Z,100806.34
2019-05-29T18:44:20.732Z,100813.63
2019-05-29T18:46:54.141Z,100819.87
2019-05-29T18:49:51.049Z,100809.18
2019-05-29T18:52:39.926Z,100817.98
2019-05-29T18:55:11.693Z,100826.11
2019-05-29T18:57:44.805Z,100816.06
2019-05-29T19:00:18.162Z,100821.08
2019-05-29T19:02:49.592Z,100823.67
2019-05-29T19:05:21.527Z,100824.23
2019-05-29T19:07:53.097Z,100820.50
2019-05-29T19:10:25.543Z,100824.99
2019-05-29T19:12:59.434Z,100822.44
2019-05-29T19:15:30.646Z,100824.00
2019-05-29T19:18:01.985Z,100818.55
2019-05-29T19:20:32.925Z,100813.95
2019-05-29T19:23:04.082Z,100821.50
2019-05-29T19:25:35.312Z,100820.81
2019-05-29T19:28:06.841Z,100810.91
2019-05-29T19:30:39.210Z,100813.47
2019-05-29T19:33:11.008Z,100803.05
2019-05-29T19:35:42.243Z,100793.97
2019-05-29T19:38:13.461Z,100804.70
2019-05-29T19:40:44.895Z,100808.09
2019-05-29T19:43:16.032Z,100818.83
2019-05-29T19:45:47.466Z,100809.74
2019-05-29T19:48:18.788Z,100811.28
2019-05-29T19:50:50.054Z,100811.58
2019-05-29T19:53:24.566Z,100802.52
2019-05-29T19:55:55.023Z,100810.86
2019-05-29T19:58:27.711Z,100806.59
2019-05-29T20:01:01.099Z,100805.58
2019-05-29T20:03:35.270Z,100801.16
2019-05-29T20:06:07.970Z,100799.81
2019-05-29T20:08:39.735Z,100802.55
2019-05-29T20:11:13.276Z,100806.81
2019-05-29T20:13:45.946Z,100802.05
2019-05-29T20:16:17.148Z,100806.81
2019-05-29T20:18:48.781Z,100804.59
2019-05-29T20:21:20.286Z,100805.99
2019-05-29T20:23:51.527Z,100806.02
2019-05-29T20:26:22.532Z,100804.21
2019-05-29T20:28:53.766Z,100809.87
2019-05-29T20:31:25.089Z,100813.67
2019-05-29T20:33:56.308Z,100815.08
2019-05-29T20:36:27.613Z,100815.61
2019-05-29T20:38:58.800Z,100816.48
2019-05-29T20:41:33.623Z,100808.28
2019-05-29T20:44:03.170Z,100808.81
2019-05-29T20:46:34.958Z,100810.02
2019-05-29T20:49:06.586Z,100803.03
2019-05-29T20:51:38.286Z,100810.89
2019-05-29T20:54:09.787Z,100805.91
2019-05-29T20:56:41.972Z,100806.08
2019-05-29T20:59:13.227Z,100810.69
2019-05-29T21:01:47.385Z,100808.47
2019-05-29T21:04:20.235Z,100802.27
2019-05-29T21:06:51.658Z,100805.17
2019-05-29T21:09:22.945Z,100802.77
2019-05-29T21:11:54.227Z,100795.25
2019-05-29T21:14:25.779Z,100799.84
2019-05-29T21:16:57.343Z,100791.99
2019-05-29T21:19:28.569Z,100798.64
2019-05-29T21:22:00.016Z,100807.17
2019-05-29T21:24:31.538Z,100808.02
2019-05-29T21:27:03.038Z,100804.95
2019-05-29T21:29:35.213Z,100804.63
2019-05-29T21:32:06.989Z,100809.75
2019-05-29T21:34:38.209Z,100809.05
2019-05-29T21:37:09.988Z,100811.97
2019-05-29T21:39:42.426Z,100804.38
2019-05-29T21:42:13.870Z,100804.87
2019-05-29T21:44:45.349Z,100802.48
2019-05-29T21:47:16.697Z,100805.74
2019-05-29T21:49:47.889Z,100800.13
2019-05-29T21:52:18.993Z,100801.98
2019-05-29T21:54:50.229Z,100805.60
2019-05-29T21:57:21.437Z,100807.48
2019-05-29T21:59:52.761Z,100814.70
2019-05-29T22:02:24.012Z,100826.00
2019-05-29T22:04:55.284Z,100829.60
2019-05-29T22:07:26.502Z,100830.97
2019-05-29T22:09:58.724Z,100831.30
2019-05-29T22:12:30.400Z,100829.27
2019-05-29T22:15:02.845Z,100834.24
2019-05-29T22:17:34.578Z,100826.39
2019-05-29T22:20:08.734Z,100824.19
2019-05-29T22:22:39.942Z,100826.59
2019-05-29T22:25:11.139Z,100820.59
2019-05-29T22:27:42.259Z,100824.88
2019-05-29T22:30:15.062Z,100820.27
2019-05-29T22:32:46.338Z,100827.30
2019-05-29T22:35:17.392Z,100824.72
2019-05-29T22:37:48.307Z,100830.19
2019-05-29T22:40:20.515Z,100828.16
2019-05-29T22:42:51.655Z,100830.57
2019-05-29T22:45:22.527Z,100828.85
2019-05-29T22:47:53.861Z,100826.32
2019-05-29T22:50:24.773Z,100821.38
2019-05-29T22:52:55.932Z,100827.38
2019-05-29T22:55:26.893Z,100828.77
2019-05-29T22:57:58.040Z,100836.78
2019-05-29T23:00:29.005Z,100838.16
2019-05-29T23:03:00.207Z,100846.88
2019-05-29T23:05:31.215Z,100841.27
2019-05-29T23:08:02.598Z,100838.55
2019-05-29T23:10:33.718Z,100843.50
2019-05-29T23:13:06.049Z,100836.83
2019-05-29T23:15:37.101Z,100843.32
2019-05-29T23:18:08.332Z,100847.94
2019-05-29T23:20:39.379Z,100847.59
2019-05-29T23:23:10.456Z,100846.56
2019-05-29T23:25:41.556Z,100845.02
2019-05-29T23:28:12.514Z,100847.94
2019-05-29T23:30:43.856Z,100847.94
2019-05-29T23:33:15.141Z,100846.91
2019-05-29T23:35:46.293Z,100853.59
2019-05-29T23:38:17.547Z,100853.93
2019-05-29T23:40:48.497Z,100851.72
2019-05-29T23:43:19.578Z,100851.36
2019-05-29T23:45:50.458Z,100856.97
2019-05-29T23:48:21.496Z,100845.89
2019-05-29T23:50:53.425Z,100851.35
2019-05-29T23:53:24.816Z,100850.16
2019-05-29T23:55:55.865Z,100851.16
2019-05-29T23:58:26.909Z,100853.39
